Gildeskaal — LLDI — position and weather

sailwx.info

Track history (hours):
 
Tides and Currents Weather Stations Pressure Air Temp Water Temp Dewpoint Dewpoint Depression Visibility Wind Speed Wind Dir Waves Ship Positions

Gildeskaal

Last reported at 2015-Mar-06 08:32 UTC. Time now 2015-Mar-06 09:08 UTC.
Position N 67°07' E 013°59'.

Length 52 m; draft 3.2 m.

Type: Ship. MMSI: 259680000.

Date/timePositionNaut miles runAvg speedWind from/ knotsBaromVisibWave heightAir tempDewpointWater temp
2015-Mar-06 08:32N 67°07' E 013°59'2 0.7
2015-Mar-06 06:22N 67°05' E 013°60'3 3.7
2015-Mar-06 05:33N 67°08' E 013°59'0 0.0
2015-Mar-06 04:32N 67°08' E 013°59'0 0.0
2015-Mar-06 03:32N 67°08' E 013°59'0 0.0
2015-Mar-06 02:33N 67°08' E 013°59'0 0.0
2015-Mar-06 01:31N 67°08' E 013°59'0 0.0
2015-Mar-06 00:31N 67°08' E 013°59'0 0.0
2015-Mar-05 23:28N 67°08' E 013°59'0 0.0
2015-Mar-05 22:33N 67°08' E 013°59'0 0.0
2015-Mar-05 20:17N 67°08' E 013°59'3 2.6
2015-Mar-05 19:14N 67°05' E 013°59'1 0.6
2015-Mar-05 17:33N 67°06' E 013°58'1 0.3
2015-Mar-05 14:22N 67°05' E 013°59'1 0.2
2015-Mar-05 10:29N 67°06' E 013°58'0 0.1
2015-Mar-05 08:30N 67°07' E 013°59'1 0.7
2015-Mar-05 06:22N 67°05' E 013°60'3 0.3
2015-Mar-04 20:20N 67°08' E 013°59'3 2.4
2015-Mar-04 19:11N 67°05' E 013°59'1 0.6
2015-Mar-04 17:31N 67°06' E 013°58'0 0.0
2015-Mar-04 14:14N 67°06' E 013°58'0 0.0
2015-Mar-04 10:29N 67°06' E 013°58'0 0.2
2015-Mar-04 08:31N 67°07' E 013°59'2 0.7
2015-Mar-04 06:22N 67°05' E 013°60'3 0.3
2015-Mar-03 20:23N 67°08' E 013°59'3 2.6
2015-Mar-03 19:12N 67°05' E 013°60'1 1.9
2015-Mar-03 18:31N 67°06' E 013°59'1 1.3
2015-Mar-03 17:33N 67°05' E 013°60'3 2.2
2015-Mar-03 16:12N 67°08' E 013°59'4 4.4
2015-Mar-03 15:20N 67°05' E 014°04'1 1.5
2015-Mar-03 14:21N 67°05' E 013°60'3 2.7
2015-Mar-03 13:14N 67°08' E 013°59'0 0.0
2015-Mar-03 12:19N 67°08' E 013°59'3 1.4
2015-Mar-03 10:33N 67°06' E 013°59'0 0.1
2015-Mar-03 08:31N 67°06' E 013°59'1 0.4
2015-Mar-03 06:22N 67°05' E 013°60'3 1.4
2015-Mar-03 04:14N 67°08' E 013°59'0 0.0
2015-Mar-03 02:11N 67°08' E 013°59'0 0.0
2015-Mar-03 00:24N 67°08' E 013°59'0 0.0
2015-Mar-02 23:33N 67°08' E 013°59'0 0.0
2015-Mar-02 22:27N 67°08' E 013°59'0 0.0
2015-Mar-02 20:19N 67°08' E 013°59'3 2.7
2015-Mar-02 19:14N 67°05' E 013°60'1 1.8
2015-Mar-02 18:29N 67°06' E 013°59'1 1.4
2015-Mar-02 17:32N 67°05' E 013°60'3 0.7
2015-Mar-02 13:31N 67°08' E 013°59'2 0.5
2015-Mar-02 10:30N 67°07' E 013°59'0 0.1
2015-Mar-02 08:30N 67°06' E 013°59'1 0.3
2015-Mar-02 06:20N 67°06' E 013°59'3 2.7
2015-Mar-02 05:23N 67°08' E 013°59'0 0.0
2015-Mar-01 20:10N 67°08' E 013°59'2 1.3
2015-Mar-01 18:15N 67°06' E 013°59'1 1.1
2015-Mar-01 17:28N 67°07' E 013°59'1 1.1
2015-Mar-01 16:09N 67°05' E 013°60'2 1.2
2015-Mar-01 14:33N 67°07' E 013°59'2 0.4
2015-Mar-01 09:14N 67°05' E 013°60'2 3.3
2015-Mar-01 08:34N 67°07' E 013°59'2 0.1
2015-Feb-28 16:33N 67°05' E 013°60'1 0.1
2015-Feb-28 10:33N 67°06' E 013°59'1 0.3
2015-Feb-28 08:29N 67°07' E 013°59'1 1.4
2015-Feb-28 07:23N 67°05' E 014°00'3 3.0
2015-Feb-28 06:21N 67°08' E 013°59'0 0.0
2015-Feb-28 05:03N 67°08' E 013°59'0 0.0
2015-Feb-28 04:33N 67°08' E 013°59'0 0.0
2015-Feb-28 03:33N 67°08' E 013°59'0 0.0
2015-Feb-28 00:17N 67°08' E 013°59'0 0.0
2015-Feb-27 20:24N 67°08' E 013°59'3 2.6
2015-Feb-27 19:13N 67°05' E 014°00'1 0.3
2015-Feb-27 16:28N 67°06' E 013°59'1 0.4
2015-Feb-27 14:23N 67°05' E 013°60'1 0.3
2015-Feb-27 10:27N 67°07' E 013°59'0 0.1
2015-Feb-27 08:31N 67°07' E 013°59'0 0.2
2015-Feb-27 06:14N 67°06' E 013°58'2 0.5
2015-Feb-27 02:18N 67°08' E 013°59'0 0.0
2015-Feb-27 00:18N 67°08' E 013°59'0 0.0
2015-Feb-26 20:19N 67°08' E 013°59'3 2.7
2015-Feb-26 19:13N 67°05' E 013°60'2 3.5
2015-Feb-26 18:33N 67°08' E 013°59'2 2.3
2015-Feb-26 17:33N 67°05' E 013°60'0 0.0
2015-Feb-26 14:25N 67°05' E 013°60'1 0.2
2015-Feb-26 10:32N 67°06' E 013°59'1 0.3
2015-Feb-26 08:30N 67°07' E 013°59'1 0.7
2015-Feb-26 06:23N 67°05' E 013°60'3 0.8
2015-Feb-26 02:28N 67°08' E 013°59'0 0.0
2015-Feb-26 00:25N 67°08' E 013°59'0 0.0
2015-Feb-25 23:30N 67°08' E 013°59'0 0.0
2015-Feb-25 22:25N 67°08' E 013°59'0 0.0
2015-Feb-25 21:25N 67°08' E 013°59'0 0.0
2015-Feb-25 20:19N 67°08' E 013°59'3 3.0
2015-Feb-25 19:19N 67°05' E 013°60'1 1.9
2015-Feb-25 18:32N 67°07' E 013°59'1 0.6
2015-Feb-25 17:27N 67°06' E 013°58'1 0.3
2015-Feb-25 14:22N 67°05' E 013°60'2 0.5
2015-Feb-25 10:33N 67°07' E 013°59'1 0.3
2015-Feb-25 08:29N 67°06' E 013°59'2 0.9
2015-Feb-25 06:30N 67°05' E 014°02'3 2.6
2015-Feb-25 05:11N 67°08' E 013°59'0 0.0
2015-Feb-24 22:05N 67°08' E 013°59'0 0.0
2015-Feb-24 20:19N 67°08' E 013°59'3 2.9
2015-Feb-24 19:16N 67°05' E 013°60'2 3.4
2015-Feb-24 18:33N 67°08' E 013°59'2 2.2
2015-Feb-24 17:33N 67°05' E 013°59'0 0.1
2015-Feb-24 14:23N 67°05' E 014°00'1 0.3
2015-Feb-24 10:29N 67°06' E 013°58'1 0.5
2015-Feb-24 08:34N 67°07' E 013°59'  
Track history (hours):
 
Tides and Currents Weather Stations Pressure Air Temp Water Temp Dewpoint Dewpoint Depression Visibility Wind Speed Wind Dir Waves Ship Positions

Gildeskaal

Last reported at 2015-Mar-06 08:32 UTC. Time now 2015-Mar-06 09:08 UTC.
Position N 67°07' E 013°59'.

Length 52 m; draft 3.2 m.

Type: Ship. MMSI: 259680000.

Date/timePositionNaut miles runAvg speedWind from/ knotsBaromVisibWave heightAir tempDewpointWater temp
2015-Mar-06 08:32N 67°07' E 013°59'2 0.7
2015-Mar-06 06:22N 67°05' E 013°60'3 3.7
2015-Mar-06 05:33N 67°08' E 013°59'0 0.0
2015-Mar-06 04:32N 67°08' E 013°59'0 0.0
2015-Mar-06 03:32N 67°08' E 013°59'0 0.0
2015-Mar-06 02:33N 67°08' E 013°59'0 0.0
2015-Mar-06 01:31N 67°08' E 013°59'0 0.0
2015-Mar-06 00:31N 67°08' E 013°59'0 0.0
2015-Mar-05 23:28N 67°08' E 013°59'0 0.0
2015-Mar-05 22:33N 67°08' E 013°59'0 0.0
2015-Mar-05 20:17N 67°08' E 013°59'3 2.6
2015-Mar-05 19:14N 67°05' E 013°59'1 0.6
2015-Mar-05 17:33N 67°06' E 013°58'1 0.3
2015-Mar-05 14:22N 67°05' E 013°59'1 0.2
2015-Mar-05 10:29N 67°06' E 013°58'0 0.1
2015-Mar-05 08:30N 67°07' E 013°59'1 0.7
2015-Mar-05 06:22N 67°05' E 013°60'3 0.3
2015-Mar-04 20:20N 67°08' E 013°59'3 2.4
2015-Mar-04 19:11N 67°05' E 013°59'1 0.6
2015-Mar-04 17:31N 67°06' E 013°58'0 0.0
2015-Mar-04 14:14N 67°06' E 013°58'0 0.0
2015-Mar-04 10:29N 67°06' E 013°58'0 0.2
2015-Mar-04 08:31N 67°07' E 013°59'2 0.7
2015-Mar-04 06:22N 67°05' E 013°60'3 0.3
2015-Mar-03 20:23N 67°08' E 013°59'3 2.6
2015-Mar-03 19:12N 67°05' E 013°60'1 1.9
2015-Mar-03 18:31N 67°06' E 013°59'1 1.3
2015-Mar-03 17:33N 67°05' E 013°60'3 2.2
2015-Mar-03 16:12N 67°08' E 013°59'4 4.4
2015-Mar-03 15:20N 67°05' E 014°04'1 1.5
2015-Mar-03 14:21N 67°05' E 013°60'3 2.7
2015-Mar-03 13:14N 67°08' E 013°59'0 0.0
2015-Mar-03 12:19N 67°08' E 013°59'3 1.4
2015-Mar-03 10:33N 67°06' E 013°59'0 0.1
2015-Mar-03 08:31N 67°06' E 013°59'1 0.4
2015-Mar-03 06:22N 67°05' E 013°60'3 1.4
2015-Mar-03 04:14N 67°08' E 013°59'0 0.0
2015-Mar-03 02:11N 67°08' E 013°59'0 0.0
2015-Mar-03 00:24N 67°08' E 013°59'0 0.0
2015-Mar-02 23:33N 67°08' E 013°59'0 0.0
2015-Mar-02 22:27N 67°08' E 013°59'0 0.0
2015-Mar-02 20:19N 67°08' E 013°59'3 2.7
2015-Mar-02 19:14N 67°05' E 013°60'1 1.8
2015-Mar-02 18:29N 67°06' E 013°59'1 1.4
2015-Mar-02 17:32N 67°05' E 013°60'3 0.7
2015-Mar-02 13:31N 67°08' E 013°59'2 0.5
2015-Mar-02 10:30N 67°07' E 013°59'0 0.1
2015-Mar-02 08:30N 67°06' E 013°59'1 0.3
2015-Mar-02 06:20N 67°06' E 013°59'3 2.7
2015-Mar-02 05:23N 67°08' E 013°59'0 0.0
2015-Mar-01 20:10N 67°08' E 013°59'2 1.3
2015-Mar-01 18:15N 67°06' E 013°59'1 1.1
2015-Mar-01 17:28N 67°07' E 013°59'1 1.1
2015-Mar-01 16:09N 67°05' E 013°60'2 1.2
2015-Mar-01 14:33N 67°07' E 013°59'2 0.4
2015-Mar-01 09:14N 67°05' E 013°60'2 3.3
2015-Mar-01 08:34N 67°07' E 013°59'2 0.1
2015-Feb-28 16:33N 67°05' E 013°60'1 0.1
2015-Feb-28 10:33N 67°06' E 013°59'1 0.3
2015-Feb-28 08:29N 67°07' E 013°59'1 1.4
2015-Feb-28 07:23N 67°05' E 014°00'3 3.0
2015-Feb-28 06:21N 67°08' E 013°59'0 0.0
2015-Feb-28 05:03N 67°08' E 013°59'0 0.0
2015-Feb-28 04:33N 67°08' E 013°59'0 0.0
2015-Feb-28 03:33N 67°08' E 013°59'0 0.0
2015-Feb-28 00:17N 67°08' E 013°59'0 0.0
2015-Feb-27 20:24N 67°08' E 013°59'3 2.6
2015-Feb-27 19:13N 67°05' E 014°00'1 0.3
2015-Feb-27 16:28N 67°06' E 013°59'1 0.4
2015-Feb-27 14:23N 67°05' E 013°60'1 0.3
2015-Feb-27 10:27N 67°07' E 013°59'0 0.1
2015-Feb-27 08:31N 67°07' E 013°59'0 0.2
2015-Feb-27 06:14N 67°06' E 013°58'2 0.5
2015-Feb-27 02:18N 67°08' E 013°59'0 0.0
2015-Feb-27 00:18N 67°08' E 013°59'0 0.0
2015-Feb-26 20:19N 67°08' E 013°59'3 2.7
2015-Feb-26 19:13N 67°05' E 013°60'2 3.5
2015-Feb-26 18:33N 67°08' E 013°59'2 2.3
2015-Feb-26 17:33N 67°05' E 013°60'0 0.0
2015-Feb-26 14:25N 67°05' E 013°60'1 0.2
2015-Feb-26 10:32N 67°06' E 013°59'1 0.3
2015-Feb-26 08:30N 67°07' E 013°59'1 0.7
2015-Feb-26 06:23N 67°05' E 013°60'3 0.8
2015-Feb-26 02:28N 67°08' E 013°59'0 0.0
2015-Feb-26 00:25N 67°08' E 013°59'0 0.0
2015-Feb-25 23:30N 67°08' E 013°59'0 0.0
2015-Feb-25 22:25N 67°08' E 013°59'0 0.0
2015-Feb-25 21:25N 67°08' E 013°59'0 0.0
2015-Feb-25 20:19N 67°08' E 013°59'3 3.0
2015-Feb-25 19:19N 67°05' E 013°60'1 1.9
2015-Feb-25 18:32N 67°07' E 013°59'1 0.6
2015-Feb-25 17:27N 67°06' E 013°58'1 0.3
2015-Feb-25 14:22N 67°05' E 013°60'2 0.5
2015-Feb-25 10:33N 67°07' E 013°59'1 0.3
2015-Feb-25 08:29N 67°06' E 013°59'2 0.9
2015-Feb-25 06:30N 67°05' E 014°02'3 2.6
2015-Feb-25 05:11N 67°08' E 013°59'0 0.0
2015-Feb-24 22:05N 67°08' E 013°59'0 0.0
2015-Feb-24 20:19N 67°08' E 013°59'3 2.9
2015-Feb-24 19:16N 67°05' E 013°60'2 3.4
2015-Feb-24 18:33N 67°08' E 013°59'2 2.2
2015-Feb-24 17:33N 67°05' E 013°59'0 0.1
2015-Feb-24 14:23N 67°05' E 014°00'1 0.3
2015-Feb-24 10:29N 67°06' E 013°58'1 0.5
2015-Feb-24 08:34N 67°07' E 013°59'  

Dump ship's entire track history